sensor_id;sensor_type;location;lat;lon;timestamp;pressure;altitude;pressure_sealevel;temperature;humidity
12471;BME280;36499;46.484;13.832;2022-12-13T00:01:50;92680.38;;;-9.53;73.48
12471;BME280;36499;46.484;13.832;2022-12-13T00:04:19;92685.72;;;-9.58;74.33
12471;BME280;36499;46.484;13.832;2022-12-13T00:06:48;92687.03;;;-9.52;74.64
12471;BME280;36499;46.484;13.832;2022-12-13T00:09:17;92684.13;;;-9.59;73.96
12471;BME280;36499;46.484;13.832;2022-12-13T00:11:46;92677.63;;;-9.74;74.44
12471;BME280;36499;46.484;13.832;2022-12-13T00:14:15;92674.94;;;-9.60;75.29
12471;BME280;36499;46.484;13.832;2022-12-13T00:16:45;92676.28;;;-9.43;74.33
12471;BME280;36499;46.484;13.832;2022-12-13T00:19:15;92678.81;;;-9.43;72.53
12471;BME280;36499;46.484;13.832;2022-12-13T00:21:43;92680.88;;;-9.48;72.51
12471;BME280;36499;46.484;13.832;2022-12-13T00:24:10;92676.97;;;-9.65;72.28
12471;BME280;36499;46.484;13.832;2022-12-13T00:26:37;92683.44;;;-9.74;72.52
12471;BME280;36499;46.484;13.832;2022-12-13T00:29:06;92678.00;;;-9.80;71.88
12471;BME280;36499;46.484;13.832;2022-12-13T00:31:34;92680.44;;;-9.91;73.98
12471;BME280;36499;46.484;13.832;2022-12-13T00:34:01;92675.63;;;-9.82;74.92
12471;BME280;36499;46.484;13.832;2022-12-13T00:36:30;92676.50;;;-9.70;74.77
12471;BME280;36499;46.484;13.832;2022-12-13T00:38:57;92673.84;;;-9.68;75.23
12471;BME280;36499;46.484;13.832;2022-12-13T00:41:30;92672.94;;;-9.67;73.79
12471;BME280;36499;46.484;13.832;2022-12-13T00:43:58;92672.56;;;-9.74;74.62
12471;BME280;36499;46.484;13.832;2022-12-13T00:46:29;92674.38;;;-9.76;73.74
12471;BME280;36499;46.484;13.832;2022-12-13T00:48:59;92672.78;;;-9.90;72.55
12471;BME280;36499;46.484;13.832;2022-12-13T00:51:30;92676.53;;;-10.08;73.43
12471;BME280;36499;46.484;13.832;2022-12-13T00:53:59;92672.81;;;-10.02;74.13
12471;BME280;36499;46.484;13.832;2022-12-13T00:56:29;92668.97;;;-9.95;74.43
12471;BME280;36499;46.484;13.832;2022-12-13T00:58:57;92671.47;;;-9.83;74.12
12471;BME280;36499;46.484;13.832;2022-12-13T01:01:27;92672.56;;;-9.74;74.56
12471;BME280;36499;46.484;13.832;2022-12-13T01:03:57;92671.34;;;-9.81;71.67
12471;BME280;36499;46.484;13.832;2022-12-13T01:06:30;92665.41;;;-9.80;70.91
12471;BME280;36499;46.484;13.832;2022-12-13T01:08:59;92665.53;;;-9.82;71.12
12471;BME280;36499;46.484;13.832;2022-12-13T01:11:26;92672.50;;;-9.98;73.22
12471;BME280;36499;46.484;13.832;2022-12-13T01:13:54;92670.78;;;-9.97;73.61
12471;BME280;36499;46.484;13.832;2022-12-13T01:16:21;92672.09;;;-9.92;74.35
12471;BME280;36499;46.484;13.832;2022-12-13T01:18:48;92670.75;;;-9.85;75.81
12471;BME280;36499;46.484;13.832;2022-12-13T01:21:18;92671.84;;;-9.76;76.85
12471;BME280;36499;46.484;13.832;2022-12-13T01:23:47;92667.47;;;-9.61;76.48
12471;BME280;36499;46.484;13.832;2022-12-13T01:26:19;92664.03;;;-9.48;76.92
12471;BME280;36499;46.484;13.832;2022-12-13T01:28:48;92663.56;;;-9.29;75.47
12471;BME280;36499;46.484;13.832;2022-12-13T01:31:18;92663.13;;;-9.23;73.65
12471;BME280;36499;46.484;13.832;2022-12-13T01:33:46;92665.97;;;-9.64;72.23
12471;BME280;36499;46.484;13.832;2022-12-13T01:36:17;92658.75;;;-9.45;72.45
12471;BME280;36499;46.484;13.832;2022-12-13T01:38:45;92654.63;;;-9.46;72.86
12471;BME280;36499;46.484;13.832;2022-12-13T01:41:17;92658.75;;;-9.45;72.34
12471;BME280;36499;46.484;13.832;2022-12-13T01:43:57;92646.47;;;-9.49;71.48
12471;BME280;36499;46.484;13.832;2022-12-13T01:46:28;92646.47;;;-9.49;70.87
12471;BME280;36499;46.484;13.832;2022-12-13T01:49:03;92641.84;;;-9.55;71.82
12471;BME280;36499;46.484;13.832;2022-12-13T01:51:37;92639.66;;;-9.60;72.05
12471;BME280;36499;46.484;13.832;2022-12-13T01:54:11;92642.94;;;-9.83;73.89
12471;BME280;36499;46.484;13.832;2022-12-13T01:56:44;92640.72;;;-10.00;74.86
12471;BME280;36499;46.484;13.832;2022-12-13T01:59:15;92638.72;;;-9.95;75.90
12471;BME280;36499;46.484;13.832;2022-12-13T02:01:45;92637.59;;;-9.91;76.32
12471;BME280;36499;46.484;13.832;2022-12-13T02:04:21;92637.06;;;-9.71;75.85
12471;BME280;36499;46.484;13.832;2022-12-13T02:06:49;92635.00;;;-9.66;73.14
12471;BME280;36499;46.484;13.832;2022-12-13T02:09:17;92641.25;;;-10.08;73.05
12471;BME280;36499;46.484;13.832;2022-12-13T02:11:46;92637.47;;;-9.77;72.49
12471;BME280;36499;46.484;13.832;2022-12-13T02:14:13;92637.66;;;-9.67;72.82
12471;BME280;36499;46.484;13.832;2022-12-13T02:16:53;92640.69;;;-9.62;74.21
12471;BME280;36499;46.484;13.832;2022-12-13T02:23:11;92635.69;;;-9.51;75.22
12471;BME280;36499;46.484;13.832;2022-12-13T02:26:04;92632.09;;;-9.36;74.69
12471;BME280;36499;46.484;13.832;2022-12-13T02:29:03;92634.28;;;-9.32;72.91
12471;BME280;36499;46.484;13.832;2022-12-13T02:31:45;92632.78;;;-9.34;72.52
12471;BME280;36499;46.484;13.832;2022-12-13T02:34:23;92631.06;;;-9.34;72.87
12471;BME280;36499;46.484;13.832;2022-12-13T02:37:01;92631.28;;;-9.37;72.13
12471;BME280;36499;46.484;13.832;2022-12-13T02:39:34;92626.13;;;-9.59;72.21
12471;BME280;36499;46.484;13.832;2022-12-13T02:42:11;92630.44;;;-9.48;73.46
12471;BME280;36499;46.484;13.832;2022-12-13T02:44:49;92621.44;;;-9.40;72.72
12471;BME280;36499;46.484;13.832;2022-12-13T02:47:22;92625.53;;;-9.39;73.01
12471;BME280;36499;46.484;13.832;2022-12-13T02:49:55;92627.16;;;-9.38;73.79
12471;BME280;36499;46.484;13.832;2022-12-13T02:52:28;92616.19;;;-9.26;73.69
12471;BME280;36499;46.484;13.832;2022-12-13T02:54:56;92613.91;;;-9.29;74.21
12471;BME280;36499;46.484;13.832;2022-12-13T02:57:33;92622.69;;;-9.34;73.73
12471;BME280;36499;46.484;13.832;2022-12-13T03:00:04;92620.41;;;-9.37;73.38
12471;BME280;36499;46.484;13.832;2022-12-13T03:02:47;92611.91;;;-9.36;74.53
12471;BME280;36499;46.484;13.832;2022-12-13T03:05:29;92610.34;;;-9.26;74.67
12471;BME280;36499;46.484;13.832;2022-12-13T03:08:25;92607.88;;;-9.15;75.49
12471;BME280;36499;46.484;13.832;2022-12-13T03:11:04;92596.66;;;-9.11;73.89
12471;BME280;36499;46.484;13.832;2022-12-13T03:13:40;92594.59;;;-9.06;73.41
12471;BME280;36499;46.484;13.832;2022-12-13T03:16:23;92590.88;;;-9.13;74.89
12471;BME280;36499;46.484;13.832;2022-12-13T03:18:57;92589.66;;;-9.07;75.92
12471;BME280;36499;46.484;13.832;2022-12-13T03:21:25;92597.72;;;-9.02;76.31
12471;BME280;36499;46.484;13.832;2022-12-13T03:23:53;92600.47;;;-9.05;75.71
12471;BME280;36499;46.484;13.832;2022-12-13T03:26:23;92594.72;;;-8.96;75.71
12471;BME280;36499;46.484;13.832;2022-12-13T03:28:52;92590.88;;;-8.78;74.89
12471;BME280;36499;46.484;13.832;2022-12-13T03:31:20;92598.28;;;-8.64;74.02
12471;BME280;36499;46.484;13.832;2022-12-13T03:33:48;92595.84;;;-8.65;73.29
12471;BME280;36499;46.484;13.832;2022-12-13T03:36:17;92604.09;;;-8.63;73.35
12471;BME280;36499;46.484;13.832;2022-12-13T03:38:45;92594.91;;;-8.76;74.53
12471;BME280;36499;46.484;13.832;2022-12-13T03:41:16;92590.31;;;-8.59;74.19
12471;BME280;36499;46.484;13.832;2022-12-13T03:43:45;92596.75;;;-8.55;73.21
12471;BME280;36499;46.484;13.832;2022-12-13T03:46:12;92595.94;;;-8.67;72.86
12471;BME280;36499;46.484;13.832;2022-12-13T03:48:39;92591.94;;;-8.69;73.45
12471;BME280;36499;46.484;13.832;2022-12-13T03:51:06;92593.78;;;-8.71;73.58
12471;BME280;36499;46.484;13.832;2022-12-13T03:53:35;92591.81;;;-8.79;74.51
12471;BME280;36499;46.484;13.832;2022-12-13T03:56:04;92604.06;;;-8.75;74.95
12471;BME280;36499;46.484;13.832;2022-12-13T03:58:33;92599.41;;;-8.68;74.68
12471;BME280;36499;46.484;13.832;2022-12-13T04:01:00;92600.41;;;-8.70;74.08
12471;BME280;36499;46.484;13.832;2022-12-13T04:03:27;92604.22;;;-8.76;74.01
12471;BME280;36499;46.484;13.832;2022-12-13T04:05:54;92599.84;;;-8.74;72.99
12471;BME280;36499;46.484;13.832;2022-12-13T04:08:21;92597.22;;;-8.72;72.71
12471;BME280;36499;46.484;13.832;2022-12-13T04:10:50;92592.56;;;-8.90;71.93
12471;BME280;36499;46.484;13.832;2022-12-13T04:13:17;92594.91;;;-8.76;71.19
12471;BME280;36499;46.484;13.832;2022-12-13T04:15:59;92596.59;;;-8.98;72.90
12471;BME280;36499;46.484;13.832;2022-12-13T04:18:27;92593.03;;;-8.96;73.60
12471;BME280;36499;46.484;13.832;2022-12-13T04:20:54;92587.28;;;-8.98;73.90
12471;BME280;36499;46.484;13.832;2022-12-13T04:23:22;92586.56;;;-9.11;73.83
12471;BME280;36499;46.484;13.832;2022-12-13T04:25:50;92587.84;;;-9.05;73.60
12471;BME280;36499;46.484;13.832;2022-12-13T04:28:17;92593.91;;;-9.08;74.01
12471;BME280;36499;46.484;13.832;2022-12-13T04:30:44;92589.16;;;-9.12;75.38
12471;BME280;36499;46.484;13.832;2022-12-13T04:33:12;92588.63;;;-9.05;75.30
12471;BME280;36499;46.484;13.832;2022-12-13T04:35:39;92596.31;;;-9.06;73.97
12471;BME280;36499;46.484;13.832;2022-12-13T04:38:06;92595.75;;;-9.10;73.79
12471;BME280;36499;46.484;13.832;2022-12-13T04:40:33;92591.91;;;-9.15;73.84
12471;BME280;36499;46.484;13.832;2022-12-13T04:43:02;92590.63;;;-9.32;74.39
12471;BME280;36499;46.484;13.832;2022-12-13T04:45:29;92591.66;;;-9.24;74.34
12471;BME280;36499;46.484;13.832;2022-12-13T04:47:56;92594.75;;;-9.20;74.36
12471;BME280;36499;46.484;13.832;2022-12-13T04:50:23;92590.06;;;-9.25;74.18
12471;BME280;36499;46.484;13.832;2022-12-13T04:52:50;92591.06;;;-9.27;74.11
12471;BME280;36499;46.484;13.832;2022-12-13T04:55:17;92590.47;;;-9.31;74.05
12471;BME280;36499;46.484;13.832;2022-12-13T04:57:45;92597.50;;;-9.47;74.46
12471;BME280;36499;46.484;13.832;2022-12-13T05:00:14;92596.94;;;-9.50;74.85
12471;BME280;36499;46.484;13.832;2022-12-13T05:02:42;92581.84;;;-9.39;75.64
12471;BME280;36499;46.484;13.832;2022-12-13T05:05:10;92581.09;;;-9.29;75.20
12471;BME280;36499;46.484;13.832;2022-12-13T05:07:37;92585.19;;;-9.39;73.95
12471;BME280;36499;46.484;13.832;2022-12-13T05:10:06;92580.25;;;-9.40;73.87
12471;BME280;36499;46.484;13.832;2022-12-13T05:12:33;92578.84;;;-9.44;73.56
12471;BME280;36499;46.484;13.832;2022-12-13T05:15:00;92574.13;;;-9.49;72.70
12471;BME280;36499;46.484;13.832;2022-12-13T05:17:29;92574.66;;;-9.56;72.69
12471;BME280;36499;46.484;13.832;2022-12-13T05:19:56;92575.00;;;-9.61;72.50
12471;BME280;36499;46.484;13.832;2022-12-13T05:22:23;92575.47;;;-9.80;73.23
12471;BME280;36499;46.484;13.832;2022-12-13T05:24:50;92577.56;;;-9.97;74.07
12471;BME280;36499;46.484;13.832;2022-12-13T05:27:19;92579.94;;;-9.96;75.38
12471;BME280;36499;46.484;13.832;2022-12-13T05:29:46;92574.16;;;-9.85;75.94
12471;BME280;36499;46.484;13.832;2022-12-13T05:32:14;92573.91;;;-9.69;76.05
12471;BME280;36499;46.484;13.832;2022-12-13T05:34:42;92574.56;;;-9.55;75.51
12471;BME280;36499;46.484;13.832;2022-12-13T05:37:09;92578.56;;;-9.76;72.99
12471;BME280;36499;46.484;13.832;2022-12-13T05:39:36;92575.25;;;-9.77;73.09
12471;BME280;36499;46.484;13.832;2022-12-13T05:42:03;92577.38;;;-9.70;73.67
12471;BME280;36499;46.484;13.832;2022-12-13T05:44:31;92578.94;;;-9.69;74.30
12471;BME280;36499;46.484;13.832;2022-12-13T05:46:59;92574.84;;;-9.70;73.44
12471;BME280;36499;46.484;13.832;2022-12-13T05:49:26;92575.75;;;-9.72;73.93
12471;BME280;36499;46.484;13.832;2022-12-13T05:51:55;92570.00;;;-9.74;75.51
12471;BME280;36499;46.484;13.832;2022-12-13T05:54:22;92572.16;;;-9.56;75.73
12471;BME280;36499;46.484;13.832;2022-12-13T05:56:49;92570.13;;;-9.51;75.17
12471;BME280;36499;46.484;13.832;2022-12-13T05:59:16;92583.38;;;-9.60;74.90
12471;BME280;36499;46.484;13.832;2022-12-13T06:01:43;92575.47;;;-9.56;74.25
12471;BME280;36499;46.484;13.832;2022-12-13T06:04:11;92580.75;;;-9.59;74.72
12471;BME280;36499;46.484;13.832;2022-12-13T06:06:38;92574.22;;;-9.50;73.98
12471;BME280;36499;46.484;13.832;2022-12-13T06:09:07;92582.06;;;-9.66;70.76
12471;BME280;36499;46.484;13.832;2022-12-13T06:11:34;92584.25;;;-9.85;71.02
12471;BME280;36499;46.484;13.832;2022-12-13T06:14:01;92583.72;;;-10.01;73.14
12471;BME280;36499;46.484;13.832;2022-12-13T06:16:28;92589.75;;;-10.04;74.04
12471;BME280;36499;46.484;13.832;2022-12-13T06:18:56;92588.75;;;-10.01;76.24
12471;BME280;36499;46.484;13.832;2022-12-13T06:21:23;92591.94;;;-9.87;76.47
12471;BME280;36499;46.484;13.832;2022-12-13T06:23:50;92591.56;;;-9.69;76.19
12471;BME280;36499;46.484;13.832;2022-12-13T06:26:18;92583.38;;;-9.60;75.83
12471;BME280;36499;46.484;13.832;2022-12-13T06:28:45;92593.34;;;-9.59;74.75
12471;BME280;36499;46.484;13.832;2022-12-13T06:31:12;92588.84;;;-9.66;74.31
12471;BME280;36499;46.484;13.832;2022-12-13T06:33:39;92586.72;;;-9.73;73.53
12471;BME280;36499;46.484;13.832;2022-12-13T06:36:08;92596.31;;;-9.78;73.44
12471;BME280;36499;46.484;13.832;2022-12-13T06:38:35;92595.84;;;-9.83;73.18
12471;BME280;36499;46.484;13.832;2022-12-13T06:41:08;92602.84;;;-9.99;72.92
12471;BME280;36499;46.484;13.832;2022-12-13T06:43:37;92602.69;;;-10.08;74.08
12471;BME280;36499;46.484;13.832;2022-12-13T06:46:07;92601.22;;;-10.00;74.63
12471;BME280;36499;46.484;13.832;2022-12-13T06:48:34;92597.38;;;-9.93;74.91
12471;BME280;36499;46.484;13.832;2022-12-13T06:51:03;92599.81;;;-10.04;74.13
12471;BME280;36499;46.484;13.832;2022-12-13T06:53:34;92607.34;;;-10.15;74.66
12471;BME280;36499;46.484;13.832;2022-12-13T06:56:04;92609.44;;;-10.09;74.24
12471;BME280;36499;46.484;13.832;2022-12-13T06:58:31;92606.69;;;-10.06;75.03
12471;BME280;36499;46.484;13.832;2022-12-13T07:01:05;92614.22;;;-9.93;75.52
12471;BME280;36499;46.484;13.832;2022-12-13T07:03:34;92601.56;;;-10.04;74.03
12471;BME280;36499;46.484;13.832;2022-12-13T07:06:06;92608.78;;;-10.00;73.78
12471;BME280;36499;46.484;13.832;2022-12-13T07:08:34;92609.50;;;-9.98;73.89
12471;BME280;36499;46.484;13.832;2022-12-13T07:11:02;92614.31;;;-9.95;73.46
12471;BME280;36499;46.484;13.832;2022-12-13T07:13:29;92612.94;;;-9.99;73.49
12471;BME280;36499;46.484;13.832;2022-12-13T07:15:58;92618.78;;;-10.11;73.45
12471;BME280;36499;46.484;13.832;2022-12-13T07:18:27;92621.59;;;-10.03;73.18
12471;BME280;36499;46.484;13.832;2022-12-13T07:20:54;92617.16;;;-9.99;74.69
12471;BME280;36499;46.484;13.832;2022-12-13T07:23:21;92618.75;;;-9.86;74.64
12471;BME280;36499;46.484;13.832;2022-12-13T07:25:52;92617.13;;;-9.87;74.81
12471;BME280;36499;46.484;13.832;2022-12-13T07:28:20;92620.69;;;-9.89;75.54
12471;BME280;36499;46.484;13.832;2022-12-13T07:30:48;92619.72;;;-9.76;75.46
12471;BME280;36499;46.484;13.832;2022-12-13T07:33:15;92617.41;;;-9.79;74.24
12471;BME280;36499;46.484;13.832;2022-12-13T07:35:46;92622.09;;;-9.98;75.16
12471;BME280;36499;46.484;13.832;2022-12-13T07:38:13;92625.31;;;-9.96;75.05
12471;BME280;36499;46.484;13.832;2022-12-13T07:40:41;92620.78;;;-10.03;75.66
12471;BME280;36499;46.484;13.832;2022-12-13T07:43:08;92611.81;;;-9.95;75.19
12471;BME280;36499;46.484;13.832;2022-12-13T07:45:36;92612.09;;;-9.87;75.23
12471;BME280;36499;46.484;13.832;2022-12-13T07:48:05;92616.78;;;-9.69;74.78
12471;BME280;36499;46.484;13.832;2022-12-13T07:50:33;92604.09;;;-9.81;74.70
12471;BME280;36499;46.484;13.832;2022-12-13T07:53:05;92613.25;;;-9.67;74.95
12471;BME280;36499;46.484;13.832;2022-12-13T07:55:34;92617.28;;;-9.77;75.12
12471;BME280;36499;46.484;13.832;2022-12-13T07:58:06;92614.47;;;-9.73;75.21
12471;BME280;36499;46.484;13.832;2022-12-13T08:00:33;92613.63;;;-9.60;75.19
12471;BME280;36499;46.484;13.832;2022-12-13T08:03:00;92611.03;;;-9.72;74.46
12471;BME280;36499;46.484;13.832;2022-12-13T08:05:27;92616.09;;;-9.72;73.79
12471;BME280;36499;46.484;13.832;2022-12-13T08:07:55;92610.06;;;-9.82;75.06
12471;BME280;36499;46.484;13.832;2022-12-13T08:10:23;92616.69;;;-9.68;74.66
12471;BME280;36499;46.484;13.832;2022-12-13T08:12:50;92616.22;;;-9.86;74.99
12471;BME280;36499;46.484;13.832;2022-12-13T08:15:18;92607.94;;;-9.75;74.12
12471;BME280;36499;46.484;13.832;2022-12-13T08:17:46;92616.06;;;-9.59;73.82
12471;BME280;36499;46.484;13.832;2022-12-13T08:20:14;92610.56;;;-9.53;73.55
12471;BME280;36499;46.484;13.832;2022-12-13T08:22:42;92614.75;;;-9.64;74.17
12471;BME280;36499;46.484;13.832;2022-12-13T08:25:09;92605.25;;;-9.61;74.20
12471;BME280;36499;46.484;13.832;2022-12-13T08:27:37;92618.94;;;-9.52;74.36
12471;BME280;36499;46.484;13.832;2022-12-13T08:30:06;92612.72;;;-9.59;74.02
12471;BME280;36499;46.484;13.832;2022-12-13T08:32:34;92614.41;;;-9.47;73.93
12471;BME280;36499;46.484;13.832;2022-12-13T08:35:01;92609.41;;;-9.36;73.82
12471;BME280;36499;46.484;13.832;2022-12-13T08:37:28;92602.78;;;-9.26;73.36
12471;BME280;36499;46.484;13.832;2022-12-13T08:39:55;92600.63;;;-9.19;72.84
12471;BME280;36499;46.484;13.832;2022-12-13T08:42:22;92606.97;;;-9.14;72.36
12471;BME280;36499;46.484;13.832;2022-12-13T08:44:52;92605.56;;;-9.18;72.76
12471;BME280;36499;46.484;13.832;2022-12-13T08:47:22;92608.69;;;-9.14;72.51
12471;BME280;36499;46.484;13.832;2022-12-13T08:49:50;92614.91;;;-9.31;72.35
12471;BME280;36499;46.484;13.832;2022-12-13T08:52:30;92612.28;;;-9.30;73.45
12471;BME280;36499;46.484;13.832;2022-12-13T08:54:57;92619.94;;;-9.31;74.58
12471;BME280;36499;46.484;13.832;2022-12-13T08:57:24;92615.88;;;-9.21;74.82
12471;BME280;36499;46.484;13.832;2022-12-13T08:59:52;92611.78;;;-9.11;73.76
12471;BME280;36499;46.484;13.832;2022-12-13T09:02:20;92609.28;;;-9.00;73.23
12471;BME280;36499;46.484;13.832;2022-12-13T09:04:48;92614.38;;;-8.89;72.24
12471;BME280;36499;46.484;13.832;2022-12-13T09:07:15;92612.63;;;-8.99;71.20
12471;BME280;36499;46.484;13.832;2022-12-13T09:09:42;92617.78;;;-9.01;70.79
12471;BME280;36499;46.484;13.832;2022-12-13T09:12:09;92616.97;;;-9.01;71.51
12471;BME280;36499;46.484;13.832;2022-12-13T09:14:38;92618.50;;;-8.99;71.63
12471;BME280;36499;46.484;13.832;2022-12-13T09:17:06;92620.88;;;-8.97;70.91
12471;BME280;36499;46.484;13.832;2022-12-13T09:19:33;92614.63;;;-9.15;72.62
12471;BME280;36499;46.484;13.832;2022-12-13T09:22:01;92615.69;;;-9.07;73.14
12471;BME280;36499;46.484;13.832;2022-12-13T09:24:28;92609.75;;;-9.06;72.14
12471;BME280;36499;46.484;13.832;2022-12-13T09:26:55;92598.06;;;-8.96;71.68
12471;BME280;36499;46.484;13.832;2022-12-13T09:29:22;92593.38;;;-8.89;71.87
12471;BME280;36499;46.484;13.832;2022-12-13T09:31:49;92600.59;;;-8.96;71.27
12471;BME280;36499;46.484;13.832;2022-12-13T09:34:18;92602.13;;;-9.17;71.23
12471;BME280;36499;46.484;13.832;2022-12-13T09:36:45;92583.59;;;-8.94;71.57
12471;BME280;36499;46.484;13.832;2022-12-13T09:39:12;92584.56;;;-8.84;71.19
12471;BME280;36499;46.484;13.832;2022-12-13T09:41:43;92583.44;;;-8.80;71.82
12471;BME280;36499;46.484;13.832;2022-12-13T09:44:22;92575.75;;;-8.67;72.34
12471;BME280;36499;46.484;13.832;2022-12-13T09:46:53;92584.38;;;-8.58;72.92
12471;BME280;36499;46.484;13.832;2022-12-13T09:49:30;92578.50;;;-8.59;71.48
12471;BME280;36499;46.484;13.832;2022-12-13T09:52:06;92576.13;;;-8.60;71.50
12471;BME280;36499;46.484;13.832;2022-12-13T09:54:39;92569.44;;;-8.61;71.88
12471;BME280;36499;46.484;13.832;2022-12-13T09:59:29;92565.06;;;-8.70;71.61
12471;BME280;36499;46.484;13.832;2022-12-13T10:02:14;92565.31;;;-8.62;71.14
12471;BME280;36499;46.484;13.832;2022-12-13T10:04:42;92558.63;;;-8.63;70.04
12471;BME280;36499;46.484;13.832;2022-12-13T10:07:18;92557.88;;;-8.53;70.70
12471;BME280;36499;46.484;13.832;2022-12-13T10:09:57;92559.09;;;-8.58;69.76
12471;BME280;36499;46.484;13.832;2022-12-13T10:12:26;92554.53;;;-8.53;69.56
12471;BME280;36499;46.484;13.832;2022-12-13T10:14:59;92554.31;;;-8.50;70.38
12471;BME280;36499;46.484;13.832;2022-12-13T10:17:35;92537.75;;;-8.43;70.90
12471;BME280;36499;46.484;13.832;2022-12-13T10:20:05;92543.97;;;-8.36;70.63
12471;BME280;36499;46.484;13.832;2022-12-13T10:22:33;92538.75;;;-8.23;70.66
12471;BME280;36499;46.484;13.832;2022-12-13T10:25:02;92532.25;;;-7.83;72.22
12471;BME280;36499;46.484;13.832;2022-12-13T10:27:35;92521.81;;;-7.26;72.35
12471;BME280;36499;46.484;13.832;2022-12-13T10:30:10;92520.38;;;-6.66;72.40
12471;BME280;36499;46.484;13.832;2022-12-13T10:32:52;92517.09;;;-6.17;70.31
12471;BME280;36499;46.484;13.832;2022-12-13T10:35:25;92516.38;;;-5.79;68.68
12471;BME280;36499;46.484;13.832;2022-12-13T10:37:54;92513.38;;;-5.45;68.11
12471;BME280;36499;46.484;13.832;2022-12-13T10:40:26;92505.75;;;-5.35;68.60
12471;BME280;36499;46.484;13.832;2022-12-13T10:43:22;92509.09;;;-5.15;67.78
12471;BME280;36499;46.484;13.832;2022-12-13T10:45:59;92513.63;;;-5.19;66.38
12471;BME280;36499;46.484;13.832;2022-12-13T10:48:34;92508.31;;;-5.25;66.96
12471;BME280;36499;46.484;13.832;2022-12-13T10:51:05;92507.75;;;-5.48;66.68
12471;BME280;36499;46.484;13.832;2022-12-13T10:53:38;92502.53;;;-3.78;81.38
12471;BME280;36499;46.484;13.832;2022-12-13T10:56:07;92496.47;;;-2.79;67.60
12471;BME280;36499;46.484;13.832;2022-12-13T10:58:37;92490.53;;;-3.06;63.01
12471;BME280;36499;46.484;13.832;2022-12-13T11:01:19;92491.81;;;-3.37;63.83
12471;BME280;36499;46.484;13.832;2022-12-13T11:03:58;92487.13;;;-4.04;64.03
12471;BME280;36499;46.484;13.832;2022-12-13T11:06:28;92497.28;;;-4.31;64.17
12471;BME280;36499;46.484;13.832;2022-12-13T11:09:14;92495.38;;;-4.66;65.47
12471;BME280;36499;46.484;13.832;2022-12-13T11:11:43;92497.69;;;-4.82;66.89
12471;BME280;36499;46.484;13.832;2022-12-13T11:14:19;92490.25;;;-5.22;65.32
12471;BME280;36499;46.484;13.832;2022-12-13T11:16:54;92486.25;;;-5.44;68.16
12471;BME280;36499;46.484;13.832;2022-12-13T11:19:32;92485.56;;;-5.46;68.92
12471;BME280;36499;46.484;13.832;2022-12-13T11:22:01;92472.34;;;-5.50;69.18
12471;BME280;36499;46.484;13.832;2022-12-13T11:24:33;92474.59;;;-5.47;69.41
12471;BME280;36499;46.484;13.832;2022-12-13T11:27:19;92468.19;;;-5.41;69.61
12471;BME280;36499;46.484;13.832;2022-12-13T11:30:08;92469.25;;;-5.34;69.07
12471;BME280;36499;46.484;13.832;2022-12-13T11:33:10;92460.31;;;-5.38;68.70
12471;BME280;36499;46.484;13.832;2022-12-13T11:35:56;92458.69;;;-5.39;67.73
12471;BME280;36499;46.484;13.832;2022-12-13T11:38:33;92460.03;;;-5.35;69.06
12471;BME280;36499;46.484;13.832;2022-12-13T11:41:16;92459.09;;;-5.24;69.58
12471;BME280;36499;46.484;13.832;2022-12-13T11:43:56;92449.84;;;-5.16;69.34
12471;BME280;36499;46.484;13.832;2022-12-13T11:46:37;92453.47;;;-5.09;69.19
12471;BME280;36499;46.484;13.832;2022-12-13T11:49:13;92440.88;;;-5.01;68.61
12471;BME280;36499;46.484;13.832;2022-12-13T11:51:49;92444.06;;;-4.89;68.15
12471;BME280;36499;46.484;13.832;2022-12-13T11:54:27;92431.59;;;-4.82;68.12
12471;BME280;36499;46.484;13.832;2022-12-13T11:57:02;92427.44;;;-4.74;68.71
12471;BME280;36499;46.484;13.832;2022-12-13T11:59:45;92422.00;;;-4.52;69.63
12471;BME280;36499;46.484;13.832;2022-12-13T12:02:24;92410.72;;;-4.40;69.28
12471;BME280;36499;46.484;13.832;2022-12-13T12:05:02;92412.13;;;-4.27;68.90
12471;BME280;36499;46.484;13.832;2022-12-13T12:07:38;92409.53;;;-4.18;68.25
12471;BME280;36499;46.484;13.832;2022-12-13T12:10:25;92421.44;;;-4.18;67.53
12471;BME280;36499;46.484;13.832;2022-12-13T12:13:03;92410.84;;;-4.14;68.00
12471;BME280;36499;46.484;13.832;2022-12-13T12:15:42;92404.22;;;-4.07;68.00
12471;BME280;36499;46.484;13.832;2022-12-13T12:18:14;92410.78;;;-4.04;68.62
12471;BME280;36499;46.484;13.832;2022-12-13T12:21:00;92413.56;;;-3.98;69.80
12471;BME280;36499;46.484;13.832;2022-12-13T12:23:55;92408.94;;;-3.84;70.09
12471;BME280;36499;46.484;13.832;2022-12-13T12:26:34;92405.06;;;-3.71;69.38
12471;BME280;36499;46.484;13.832;2022-12-13T12:29:31;92399.69;;;-3.50;69.80
12471;BME280;36499;46.484;13.832;2022-12-13T12:32:18;92403.31;;;-3.35;69.85
12471;BME280;36499;46.484;13.832;2022-12-13T12:35:07;92399.56;;;-3.23;69.32
12471;BME280;36499;46.484;13.832;2022-12-13T12:37:51;92394.22;;;-3.20;68.27
12471;BME280;36499;46.484;13.832;2022-12-13T12:40:40;92400.25;;;-3.21;68.57
12471;BME280;36499;46.484;13.832;2022-12-13T12:43:28;92390.69;;;-3.19;69.59
12471;BME280;36499;46.484;13.832;2022-12-13T12:46:24;92392.78;;;-3.14;69.97
12471;BME280;36499;46.484;13.832;2022-12-13T12:49:26;92387.47;;;-3.03;69.26
12471;BME280;36499;46.484;13.832;2022-12-13T12:52:01;92390.81;;;-3.03;69.49
12471;BME280;36499;46.484;13.832;2022-12-13T12:54:45;92389.25;;;-2.96;69.57
12471;BME280;36499;46.484;13.832;2022-12-13T12:57:24;92392.41;;;-3.02;69.44
12471;BME280;36499;46.484;13.832;2022-12-13T13:00:03;92395.09;;;-3.03;69.88
12471;BME280;36499;46.484;13.832;2022-12-13T13:02:42;92391.16;;;-2.98;69.21
12471;BME280;36499;46.484;13.832;2022-12-13T13:05:20;92386.25;;;-2.91;70.10
12471;BME280;36499;46.484;13.832;2022-12-13T13:07:57;92385.16;;;-2.88;70.50
12471;BME280;36499;46.484;13.832;2022-12-13T13:10:27;92388.81;;;-2.91;69.55
12471;BME280;36499;46.484;13.832;2022-12-13T13:12:55;92381.53;;;-2.86;70.71
12471;BME280;36499;46.484;13.832;2022-12-13T13:15:52;92384.22;;;-2.87;70.38
12471;BME280;36499;46.484;13.832;2022-12-13T13:18:48;92381.41;;;-2.76;69.73
12471;BME280;36499;46.484;13.832;2022-12-13T13:21:44;92387.16;;;-2.74;69.74